createdAt,value
2019-03-30T00:00:45.229Z,79.28
2019-03-30T00:03:14.284Z,79.11
2019-03-30T00:05:43.342Z,79.38
2019-03-30T00:08:12.392Z,79.42
2019-03-30T00:10:41.577Z,79.42
2019-03-30T00:13:10.627Z,79.65
2019-03-30T00:15:39.763Z,78.78
2019-03-30T00:18:08.845Z,78.38
2019-03-30T00:20:37.890Z,78.31
2019-03-30T00:23:07.032Z,79.01
2019-03-30T00:25:36.140Z,79.35
2019-03-30T00:28:05.275Z,78.72
2019-03-30T00:30:34.340Z,78.23
2019-03-30T00:33:03.514Z,78.57
2019-03-30T00:35:32.692Z,78.12
2019-03-30T00:38:01.711Z,78.48
2019-03-30T00:40:30.779Z,78.96
2019-03-30T00:42:59.822Z,79.44
2019-03-30T00:45:28.888Z,78.59
2019-03-30T00:47:58.061Z,78.02
2019-03-30T00:50:27.115Z,78.78
2019-03-30T00:52:56.147Z,79.56
2019-03-30T00:55:25.219Z,79.10
2019-03-30T00:57:54.278Z,79.56
2019-03-30T01:00:23.435Z,79.31
2019-03-30T01:02:52.512Z,79.99
2019-03-30T01:05:21.751Z,79.54
2019-03-30T01:07:50.808Z,80.16
2019-03-30T01:10:20.066Z,79.91
2019-03-30T01:12:49.243Z,80.21
2019-03-30T01:15:18.287Z,79.79
2019-03-30T01:17:47.689Z,79.38
2019-03-30T01:20:16.733Z,79.05
2019-03-30T01:22:45.904Z,79.52
2019-03-30T01:25:15.184Z,78.52
2019-03-30T01:27:44.344Z,78.91
2019-03-30T01:30:22.911Z,79.38
2019-03-30T01:32:44.870Z,80.13
2019-03-30T01:35:13.949Z,79.26
2019-03-30T01:37:43.154Z,79.63
2019-03-30T01:40:12.429Z,79.64
2019-03-30T01:42:41.570Z,79.51
2019-03-30T01:45:11.430Z,79.72
2019-03-30T01:47:40.516Z,80.18
2019-03-30T01:50:17.166Z,80.03
2019-03-30T01:52:41.207Z,79.70
2019-03-30T01:55:10.562Z,79.59
2019-03-30T01:57:39.629Z,79.79
2019-03-30T02:00:09.573Z,79.72
2019-03-30T02:02:38.908Z,81.38
2019-03-30T02:05:08.221Z,80.06
2019-03-30T02:07:37.383Z,80.09
2019-03-30T02:10:07.492Z,80.26
2019-03-30T02:12:36.706Z,79.82
2019-03-30T02:15:06.887Z,79.74
2019-03-30T02:17:35.944Z,79.59
2019-03-30T02:20:06.177Z,80.16
2019-03-30T02:22:35.345Z,78.83
2019-03-30T02:25:05.711Z,79.66
2019-03-30T02:27:34.869Z,78.52
2019-03-30T02:30:04.782Z,77.81
2019-03-30T02:32:33.821Z,79.35
2019-03-30T02:35:03.572Z,79.90
2019-03-30T02:37:33.019Z,80.09
2019-03-30T02:40:02.320Z,79.99
2019-03-30T02:42:31.371Z,78.02
2019-03-30T02:45:00.563Z,78.13
2019-03-30T02:47:29.632Z,78.77
2019-03-30T02:49:58.710Z,78.81
2019-03-30T02:52:27.796Z,78.92
2019-03-30T02:54:56.928Z,78.15
2019-03-30T02:57:26.002Z,78.42
2019-03-30T02:59:55.200Z,78.91
2019-03-30T03:02:24.253Z,78.46
2019-03-30T03:04:53.315Z,77.95
2019-03-30T03:07:22.598Z,77.47
2019-03-30T03:09:52.420Z,77.86
2019-03-30T03:12:21.521Z,77.92
2019-03-30T03:14:50.781Z,78.27
2019-03-30T03:17:20.215Z,78.45
2019-03-30T03:19:49.244Z,78.24
2019-03-30T03:22:18.459Z,78.06
2019-03-30T03:24:47.522Z,79.66
2019-03-30T03:27:16.618Z,78.76
2019-03-30T03:29:46.021Z,78.63
2019-03-30T03:32:15.072Z,78.24
2019-03-30T03:34:44.220Z,79.40
2019-03-30T03:37:13.520Z,78.09
2019-03-30T03:39:42.682Z,76.92
2019-03-30T03:42:11.837Z,77.75
2019-03-30T03:44:41.167Z,77.85
2019-03-30T03:47:10.337Z,76.11
2019-03-30T03:49:39.580Z,75.65
2019-03-30T03:52:08.873Z,75.28
2019-03-30T03:54:38.001Z,75.73
2019-03-30T03:57:10.909Z,75.60
2019-03-30T03:59:41.413Z,75.25
2019-03-30T04:02:13.289Z,76.61
2019-03-30T04:04:47.274Z,77.52
2019-03-30T04:07:19.692Z,76.42
2019-03-30T04:09:50.876Z,77.17
2019-03-30T04:12:22.197Z,76.98
2019-03-30T04:14:51.658Z,77.30
2019-03-30T04:17:20.926Z,76.00
2019-03-30T04:19:50.200Z,76.54
2019-03-30T04:22:19.283Z,77.29
2019-03-30T04:24:48.357Z,78.03
2019-03-30T04:27:17.409Z,79.09
2019-03-30T04:29:46.794Z,77.43
2019-03-30T04:32:15.905Z,76.14
2019-03-30T04:34:45.145Z,77.66
2019-03-30T04:37:14.235Z,77.96
2019-03-30T04:39:43.385Z,80.01
2019-03-30T04:42:12.602Z,78.47
2019-03-30T04:44:41.664Z,79.33
2019-03-30T04:47:10.731Z,80.56
2019-03-30T04:49:39.871Z,80.48
2019-03-30T04:52:08.971Z,80.71
2019-03-30T04:54:37.995Z,81.38
2019-03-30T04:57:07.031Z,80.87
2019-03-30T04:59:36.105Z,79.99
2019-03-30T05:02:05.408Z,81.71
2019-03-30T05:04:34.600Z,80.84
2019-03-30T05:07:03.678Z,80.64
2019-03-30T05:09:32.939Z,82.03
2019-03-30T05:12:02.153Z,82.31
2019-03-30T05:14:31.229Z,81.01
2019-03-30T05:17:00.255Z,80.82
2019-03-30T05:19:29.305Z,81.86
2019-03-30T05:22:11.389Z,82.31
2019-03-30T05:24:29.515Z,82.42
2019-03-30T05:26:58.670Z,82.28
2019-03-30T05:29:27.734Z,81.47
2019-03-30T05:31:56.763Z,81.92
2019-03-30T05:34:25.824Z,82.38
2019-03-30T05:36:54.862Z,81.22
2019-03-30T05:39:24.007Z,81.40
2019-03-30T05:41:53.088Z,81.95
2019-03-30T05:44:22.216Z,81.13
2019-03-30T05:46:51.253Z,81.52
2019-03-30T05:49:20.328Z,81.19
2019-03-30T05:51:49.484Z,80.62
2019-03-30T05:54:18.539Z,80.85
2019-03-30T05:56:47.602Z,80.73
2019-03-30T05:59:16.705Z,80.10
2019-03-30T06:01:45.854Z,80.73
2019-03-30T06:04:14.916Z,80.48
2019-03-30T06:06:44.149Z,79.82
2019-03-30T06:09:13.203Z,79.42
2019-03-30T06:11:42.352Z,79.74
2019-03-30T06:14:11.513Z,78.32
2019-03-30T06:16:40.781Z,77.34
2019-03-30T06:19:09.956Z,77.63
2019-03-30T06:24:19.339Z,77.58
2019-03-30T06:26:48.618Z,77.62
2019-03-30T06:29:17.715Z,76.19
2019-03-30T06:31:47.008Z,75.85
2019-03-30T06:34:16.119Z,75.13
2019-03-30T06:36:45.199Z,74.14
2019-03-30T06:39:14.554Z,71.90
2019-03-30T06:41:43.862Z,70.10
2019-03-30T06:44:13.156Z,70.14
2019-03-30T06:46:42.248Z,69.72
2019-03-30T06:49:11.460Z,69.03
2019-03-30T06:51:40.743Z,66.67
2019-03-30T06:54:09.954Z,64.59
2019-03-30T06:56:39.144Z,63.89
2019-03-30T06:59:08.452Z,62.64
2019-03-30T07:01:38.153Z,60.20
2019-03-30T07:04:11.046Z,59.62
2019-03-30T07:06:38.958Z,57.48
2019-03-30T07:09:08.087Z,56.34
2019-03-30T07:11:41.448Z,56.37
2019-03-30T07:14:10.840Z,53.89
2019-03-30T07:16:41.319Z,48.87
2019-03-30T07:19:11.634Z,49.42
2019-03-30T07:21:40.825Z,43.83
2019-03-30T07:24:09.914Z,41.29
2019-03-30T07:26:39.402Z,38.77
2019-03-30T07:29:08.700Z,41.90
2019-03-30T07:31:37.891Z,37.53
2019-03-30T07:34:07.109Z,35.77
2019-03-30T07:36:36.242Z,33.76
2019-03-30T07:39:05.545Z,33.04
2019-03-30T07:41:34.639Z,31.37
2019-03-30T07:44:03.818Z,30.29
2019-03-30T07:46:32.911Z,30.54
2019-03-30T07:49:02.231Z,33.49
2019-03-30T07:51:33.461Z,32.15
2019-03-30T07:54:02.757Z,33.04
2019-03-30T07:56:31.854Z,32.87
2019-03-30T07:59:01.168Z,34.46
2019-03-30T08:01:30.495Z,33.80
2019-03-30T08:03:59.795Z,36.89
2019-03-30T08:06:29.089Z,33.27
2019-03-30T08:08:58.199Z,33.27
2019-03-30T08:11:27.492Z,34.64
2019-03-30T08:13:56.619Z,34.03
2019-03-30T08:16:25.904Z,30.23
2019-03-30T08:18:54.969Z,30.23
2019-03-30T08:21:24.076Z,31.09
2019-03-30T08:23:53.303Z,31.02
2019-03-30T08:26:22.504Z,31.04
2019-03-30T08:28:51.792Z,30.64
2019-03-30T08:31:21.106Z,31.50
2019-03-30T08:33:50.272Z,29.81
2019-03-30T08:36:19.454Z,27.93
2019-03-30T08:38:48.642Z,27.61
2019-03-30T08:41:17.927Z,28.63
2019-03-30T08:43:47.003Z,30.11
2019-03-30T08:46:16.206Z,28.67
2019-03-30T08:48:45.390Z,28.76
2019-03-30T08:51:14.583Z,29.40
2019-03-30T08:53:53.972Z,29.18
2019-03-30T08:56:14.874Z,28.85
2019-03-30T08:58:44.126Z,28.59
2019-03-30T09:01:13.464Z,30.38
2019-03-30T09:03:42.640Z,29.17
2019-03-30T09:06:11.831Z,26.51
2019-03-30T09:08:40.946Z,26.65
2019-03-30T09:11:10.264Z,26.64
2019-03-30T09:13:39.459Z,26.94
2019-03-30T09:16:08.854Z,27.12
2019-03-30T09:18:38.105Z,27.11
2019-03-30T09:21:07.399Z,25.95
2019-03-30T09:23:36.737Z,23.59
2019-03-30T09:26:06.026Z,25.18
2019-03-30T09:28:35.181Z,26.08
2019-03-30T09:31:04.526Z,27.05
2019-03-30T09:33:33.809Z,25.56
2019-03-30T09:36:03.104Z,26.39
2019-03-30T09:38:32.328Z,25.54
2019-03-30T09:41:01.528Z,26.25
2019-03-30T09:43:30.703Z,28.05
2019-03-30T09:46:00.048Z,27.71
2019-03-30T09:48:29.257Z,24.46
2019-03-30T09:50:58.558Z,24.99
2019-03-30T09:53:27.862Z,24.63
2019-03-30T09:55:57.037Z,25.45
2019-03-30T09:58:26.239Z,22.66
2019-03-30T10:00:55.452Z,25.50
2019-03-30T10:03:24.561Z,21.81
2019-03-30T10:05:53.645Z,23.74
2019-03-30T10:08:22.967Z,23.90
2019-03-30T10:10:52.162Z,23.75
2019-03-30T10:13:21.486Z,24.81
2019-03-30T10:15:50.745Z,23.17
2019-03-30T10:18:19.883Z,22.59
2019-03-30T10:20:49.071Z,23.05
2019-03-30T10:23:18.451Z,23.34
2019-03-30T10:25:47.645Z,22.73
2019-03-30T10:28:16.859Z,22.79
2019-03-30T10:30:46.244Z,24.39
2019-03-30T10:33:15.323Z,23.90
2019-03-30T10:35:44.517Z,24.79
2019-03-30T10:38:13.728Z,24.19
2019-03-30T10:40:42.917Z,22.39
2019-03-30T10:43:12.237Z,24.34
2019-03-30T10:45:41.714Z,22.34
2019-03-30T10:48:11.111Z,21.80
2019-03-30T10:50:40.438Z,22.07
2019-03-30T10:53:09.640Z,20.44
2019-03-30T10:55:38.842Z,21.29
2019-03-30T10:58:08.089Z,23.15
2019-03-30T11:00:39.413Z,21.93
2019-03-30T11:03:08.672Z,21.72
2019-03-30T11:05:37.999Z,24.21
2019-03-30T11:08:07.272Z,22.33
2019-03-30T11:10:36.580Z,22.65
2019-03-30T11:13:05.813Z,22.11
2019-03-30T11:15:35.124Z,20.18
2019-03-30T11:18:04.414Z,21.65
2019-03-30T11:20:33.722Z,20.47
2019-03-30T11:23:03.068Z,22.21
2019-03-30T11:25:32.393Z,21.51
2019-03-30T11:28:01.764Z,23.15
2019-03-30T11:30:30.874Z,22.46
2019-03-30T11:33:00.078Z,22.30
2019-03-30T11:35:29.356Z,20.99
2019-03-30T11:37:58.545Z,21.36
2019-03-30T11:40:27.758Z,21.31
2019-03-30T11:42:57.249Z,20.45
2019-03-30T11:45:26.449Z,20.37
2019-03-30T11:47:55.780Z,21.23
2019-03-30T11:50:25.080Z,20.17
2019-03-30T11:52:54.274Z,20.86
2019-03-30T11:55:23.477Z,20.34
2019-03-30T11:57:52.580Z,21.65
2019-03-30T12:00:21.906Z,22.85
2019-03-30T12:02:51.212Z,20.68
2019-03-30T12:05:20.568Z,20.64
2019-03-30T12:07:49.777Z,19.92
2019-03-30T12:10:19.104Z,19.30
2019-03-30T12:12:48.413Z,20.48
2019-03-30T12:15:17.707Z,21.51
2019-03-30T12:17:47.023Z,22.42
2019-03-30T12:20:16.330Z,20.53
2019-03-30T12:22:45.537Z,21.03
2019-03-30T12:25:14.900Z,22.37
2019-03-30T12:27:44.252Z,19.08
2019-03-30T12:30:13.663Z,21.01
2019-03-30T12:32:42.988Z,20.44
2019-03-30T12:35:12.632Z,19.12
2019-03-30T12:37:41.938Z,18.98
2019-03-30T12:40:13.186Z,19.80
2019-03-30T12:42:42.523Z,21.55
2019-03-30T12:45:12.938Z,20.56
2019-03-30T12:47:42.288Z,22.01
2019-03-30T12:50:11.716Z,22.38
2019-03-30T12:52:40.950Z,22.43
2019-03-30T12:55:10.339Z,21.70
2019-03-30T12:57:39.897Z,22.13
2019-03-30T13:00:09.362Z,24.82
2019-03-30T13:02:38.581Z,26.45
2019-03-30T13:05:07.877Z,24.71
2019-03-30T13:07:37.032Z,24.27
2019-03-30T13:10:07.107Z,25.02
2019-03-30T13:12:36.331Z,24.10
2019-03-30T13:15:08.118Z,25.25
2019-03-30T13:17:37.663Z,25.25
2019-03-30T13:20:07.383Z,25.87
2019-03-30T13:22:36.736Z,25.87
2019-03-30T13:25:06.167Z,25.35
2019-03-30T13:27:35.613Z,23.40
2019-03-30T13:30:06.190Z,23.70
2019-03-30T13:32:35.550Z,25.21
2019-03-30T13:35:05.118Z,24.69
2019-03-30T13:37:34.330Z,23.78
2019-03-30T13:40:04.403Z,22.01
2019-03-30T13:42:33.815Z,20.60
2019-03-30T13:45:04.328Z,21.01
2019-03-30T13:47:33.555Z,21.26
2019-03-30T13:50:03.330Z,20.10
2019-03-30T13:52:32.485Z,20.86
2019-03-30T13:55:01.782Z,20.65
2019-03-30T13:57:31.106Z,22.49
2019-03-30T14:00:00.402Z,21.01
2019-03-30T14:02:29.540Z,22.95
2019-03-30T14:04:58.785Z,23.39
2019-03-30T14:07:27.894Z,22.30
2019-03-30T14:09:57.397Z,26.57
2019-03-30T14:12:26.601Z,27.32
2019-03-30T14:14:55.846Z,27.32
2019-03-30T14:17:25.084Z,24.70
2019-03-30T14:19:54.290Z,24.06
2019-03-30T14:22:23.608Z,21.55
2019-03-30T14:24:52.928Z,23.77
2019-03-30T14:27:22.538Z,24.37
2019-03-30T14:29:54.305Z,22.21
2019-03-30T14:32:22.923Z,21.94
2019-03-30T14:34:52.133Z,22.08
2019-03-30T14:37:21.370Z,20.66
2019-03-30T14:39:50.589Z,22.18
2019-03-30T14:42:19.708Z,23.15
2019-03-30T14:44:49.032Z,23.11
2019-03-30T14:47:18.264Z,22.62
2019-03-30T14:49:47.600Z,23.34
2019-03-30T14:52:16.720Z,22.56
2019-03-30T14:54:52.582Z,22.84
2019-03-30T14:57:16.947Z,24.64
2019-03-30T14:59:46.171Z,26.30
2019-03-30T15:02:15.420Z,26.32
2019-03-30T15:04:44.638Z,27.94
2019-03-30T15:07:13.935Z,26.66
2019-03-30T15:09:43.168Z,25.50
2019-03-30T15:12:12.485Z,25.03
2019-03-30T15:14:41.595Z,25.24
2019-03-30T15:17:10.911Z,25.60
2019-03-30T15:19:40.073Z,25.21
2019-03-30T15:22:09.301Z,25.56
2019-03-30T15:24:38.570Z,24.28
2019-03-30T15:27:07.768Z,24.32
2019-03-30T15:29:36.987Z,24.34
2019-03-30T15:32:06.212Z,25.43
2019-03-30T15:34:35.424Z,25.20
2019-03-30T15:37:04.630Z,26.39
2019-03-30T15:39:33.977Z,25.71
2019-03-30T15:42:03.316Z,26.16
2019-03-30T15:44:32.440Z,28.01
2019-03-30T15:47:01.661Z,27.28
2019-03-30T15:49:30.874Z,28.25
2019-03-30T15:52:13.380Z,28.60
2019-03-30T15:54:31.306Z,28.84
2019-03-30T15:57:13.477Z,29.14
2019-03-30T15:59:31.821Z,29.79
2019-03-30T16:02:01.160Z,29.97
2019-03-30T16:04:30.494Z,29.98
2019-03-30T16:06:59.829Z,30.42
2019-03-30T16:09:29.155Z,30.38
2019-03-30T16:11:58.444Z,30.56
2019-03-30T16:14:27.658Z,30.36
2019-03-30T16:16:56.881Z,30.98
2019-03-30T16:19:25.999Z,30.44
2019-03-30T16:21:55.221Z,30.60
2019-03-30T16:24:24.434Z,30.05
2019-03-30T16:26:53.830Z,30.39
2019-03-30T16:29:23.042Z,31.11
2019-03-30T16:31:52.166Z,31.44
2019-03-30T16:34:21.374Z,31.10
2019-03-30T16:36:50.574Z,31.94
2019-03-30T16:39:19.745Z,31.88
2019-03-30T16:41:49.024Z,32.33
2019-03-30T16:44:18.254Z,32.62
2019-03-30T16:46:47.476Z,33.48
2019-03-30T16:49:16.568Z,34.69
2019-03-30T16:51:45.780Z,33.71
2019-03-30T16:54:14.903Z,33.88
2019-03-30T16:56:43.996Z,34.06
2019-03-30T16:59:14.057Z,34.79
2019-03-30T17:01:43.417Z,34.91
2019-03-30T17:04:12.646Z,34.68
2019-03-30T17:06:41.852Z,34.93
2019-03-30T17:09:11.098Z,35.01
2019-03-30T17:11:40.411Z,34.71
2019-03-30T17:14:09.634Z,35.33
2019-03-30T17:16:38.863Z,35.23
2019-03-30T17:19:08.082Z,35.84
2019-03-30T17:21:37.383Z,36.46
2019-03-30T17:24:06.731Z,37.14
2019-03-30T17:26:36.214Z,36.84
2019-03-30T17:29:05.489Z,37.25
2019-03-30T17:31:34.896Z,37.77
2019-03-30T17:34:04.400Z,38.35
2019-03-30T17:36:33.607Z,38.00
2019-03-30T17:39:06.309Z,38.83
2019-03-30T17:41:35.437Z,39.16
2019-03-30T17:44:04.587Z,39.95
2019-03-30T17:46:33.671Z,39.63
2019-03-30T17:49:02.883Z,40.02
2019-03-30T17:51:32.251Z,40.60
2019-03-30T17:54:01.363Z,40.94
2019-03-30T17:56:30.475Z,41.17
2019-03-30T17:58:59.632Z,40.79
2019-03-30T18:01:28.727Z,41.11
2019-03-30T18:03:58.067Z,41.63
2019-03-30T18:06:27.258Z,41.35
2019-03-30T18:08:56.352Z,42.34
2019-03-30T18:11:25.570Z,42.89
2019-03-30T18:13:55.158Z,42.97
2019-03-30T18:16:24.363Z,43.56
2019-03-30T18:18:53.478Z,44.20
2019-03-30T18:21:22.739Z,44.52
2019-03-30T18:23:52.514Z,44.95
2019-03-30T18:26:21.893Z,45.12
2019-03-30T18:28:51.546Z,44.81
2019-03-30T18:31:20.882Z,45.12
2019-03-30T18:33:50.419Z,45.18
2019-03-30T18:36:19.651Z,45.90
2019-03-30T18:38:49.151Z,47.36
2019-03-30T18:41:18.430Z,48.12
2019-03-30T18:43:48.332Z,48.14
2019-03-30T18:46:17.757Z,47.75
2019-03-30T18:48:46.961Z,47.79
2019-03-30T18:51:16.582Z,48.88
2019-03-30T18:53:45.975Z,49.18
2019-03-30T18:56:15.284Z,49.99
2019-03-30T18:58:44.590Z,50.80
2019-03-30T19:01:13.688Z,51.04
2019-03-30T19:03:42.763Z,51.00
2019-03-30T19:06:12.030Z,51.57
2019-03-30T19:08:41.116Z,51.12
2019-03-30T19:11:10.360Z,51.97
2019-03-30T19:13:39.633Z,52.68
2019-03-30T19:16:08.929Z,53.81
2019-03-30T19:18:38.023Z,52.77
2019-03-30T19:21:07.372Z,53.12
2019-03-30T19:23:36.455Z,52.95
2019-03-30T19:26:05.776Z,53.83
2019-03-30T19:28:35.020Z,54.57
2019-03-30T19:31:04.372Z,54.00
2019-03-30T19:33:33.624Z,54.63
2019-03-30T19:36:02.960Z,54.98
2019-03-30T19:38:32.145Z,55.30
2019-03-30T19:41:01.361Z,54.40
2019-03-30T19:43:30.555Z,54.37
2019-03-30T19:45:59.806Z,54.73
2019-03-30T19:48:29.124Z,55.95
2019-03-30T19:50:58.347Z,56.26
2019-03-30T19:53:27.647Z,56.17
2019-03-30T19:55:56.849Z,56.76
2019-03-30T19:58:26.073Z,57.99
2019-03-30T20:00:55.381Z,58.16
2019-03-30T20:03:24.575Z,58.33
2019-03-30T20:05:53.928Z,58.29
2019-03-30T20:08:23.263Z,58.53
2019-03-30T20:10:52.568Z,58.27
2019-03-30T20:13:21.798Z,59.24
2019-03-30T20:15:51.028Z,58.42
2019-03-30T20:18:20.643Z,57.48
2019-03-30T20:20:49.776Z,58.16
2019-03-30T20:23:18.871Z,58.41
2019-03-30T20:25:48.181Z,57.54
2019-03-30T20:28:17.482Z,56.56
2019-03-30T20:30:46.839Z,56.73
2019-03-30T20:33:16.245Z,57.72
2019-03-30T20:35:45.471Z,57.59
2019-03-30T20:38:14.812Z,57.74
2019-03-30T20:40:44.099Z,58.07
2019-03-30T20:43:13.456Z,57.32
2019-03-30T20:45:42.641Z,56.76
2019-03-30T20:48:11.828Z,56.88
2019-03-30T20:50:40.916Z,56.65
2019-03-30T20:53:10.280Z,56.83
2019-03-30T20:55:39.375Z,57.04
2019-03-30T20:58:08.675Z,56.63
2019-03-30T21:00:37.894Z,56.81
2019-03-30T21:03:07.063Z,56.32
2019-03-30T21:05:36.466Z,56.32
2019-03-30T21:08:05.664Z,57.12
2019-03-30T21:10:35.279Z,57.46
2019-03-30T21:13:04.611Z,57.50
2019-03-30T21:15:33.831Z,57.45
2019-03-30T21:18:03.662Z,57.98
2019-03-30T21:20:33.145Z,58.17
2019-03-30T21:23:02.415Z,58.51
2019-03-30T21:25:31.595Z,58.61
2019-03-30T21:28:00.805Z,59.07
2019-03-30T21:30:30.084Z,58.91
2019-03-30T21:32:59.302Z,58.60
2019-03-30T21:35:28.493Z,59.36
2019-03-30T21:37:58.728Z,59.51
2019-03-30T21:40:28.266Z,59.47
2019-03-30T21:42:57.382Z,59.92
2019-03-30T21:45:26.548Z,59.70
2019-03-30T21:47:55.733Z,58.99
2019-03-30T21:50:25.131Z,59.71
2019-03-30T21:52:54.224Z,60.21
2019-03-30T21:55:23.297Z,60.63
2019-03-30T21:57:52.513Z,60.21
2019-03-30T22:00:47.038Z,60.28
2019-03-30T22:03:15.818Z,60.36
2019-03-30T22:05:45.363Z,61.28
2019-03-30T22:08:17.223Z,61.36
2019-03-30T22:10:45.732Z,62.29
2019-03-30T22:13:15.191Z,62.37
2019-03-30T22:15:44.371Z,62.29
2019-03-30T22:18:13.632Z,62.46
2019-03-30T22:20:42.870Z,62.61
2019-03-30T22:23:12.230Z,62.80
2019-03-30T22:25:41.824Z,63.47
2019-03-30T22:28:11.062Z,63.44
2019-03-30T22:30:40.455Z,61.98
2019-03-30T22:33:09.714Z,61.35
2019-03-30T22:35:38.814Z,61.81
2019-03-30T22:38:07.953Z,62.59
2019-03-30T22:40:37.154Z,63.24
2019-03-30T22:43:06.338Z,63.59
2019-03-30T22:45:35.588Z,63.82
2019-03-30T22:48:05.041Z,64.79
2019-03-30T22:50:34.681Z,65.38
2019-03-30T22:53:04.058Z,65.34
2019-03-30T22:55:33.257Z,64.94
2019-03-30T22:58:02.573Z,65.52
2019-03-30T23:00:55.039Z,65.70
2019-03-30T23:03:24.272Z,65.52
2019-03-30T23:05:53.551Z,65.83
2019-03-30T23:08:22.674Z,66.21
2019-03-30T23:10:52.013Z,66.33
2019-03-30T23:13:21.114Z,67.04
2019-03-30T23:15:50.463Z,67.42
2019-03-30T23:18:19.681Z,68.17
2019-03-30T23:20:48.866Z,68.29
2019-03-30T23:23:17.967Z,68.11
2019-03-30T23:25:47.232Z,68.87
2019-03-30T23:28:16.480Z,68.84
2019-03-30T23:30:54.131Z,69.19
2019-03-30T23:33:17.158Z,69.41
2019-03-30T23:35:46.397Z,69.85
2019-03-30T23:38:15.677Z,69.46
2019-03-30T23:40:45.022Z,69.96
2019-03-30T23:43:14.164Z,70.04
2019-03-30T23:45:43.339Z,70.00
2019-03-30T23:48:12.471Z,70.67
2019-03-30T23:50:41.783Z,70.98
2019-03-30T23:53:10.878Z,70.65
2019-03-30T23:55:40.276Z,70.71
2019-03-30T23:58:09.712Z,72.07
